createdAt,value
2018-07-19T00:01:20.428Z,16.48
2018-07-19T00:03:47.555Z,16.34
2018-07-19T00:06:14.694Z,16.40
2018-07-19T00:08:41.869Z,16.45
2018-07-19T00:11:08.980Z,15.84
2018-07-19T00:13:36.114Z,16.10
2018-07-19T00:16:03.279Z,15.76
2018-07-19T00:18:30.376Z,15.52
2018-07-19T00:20:57.864Z,15.63
2018-07-19T00:23:25.712Z,15.85
2018-07-19T00:25:53.080Z,15.73
2018-07-19T00:28:20.247Z,15.86
2018-07-19T00:30:47.448Z,16.04
2018-07-19T00:33:14.580Z,15.97
2018-07-19T00:35:41.756Z,15.60
2018-07-19T00:38:08.921Z,15.78
2018-07-19T00:40:36.036Z,15.40
2018-07-19T00:43:03.252Z,14.92
2018-07-19T00:45:30.392Z,15.38
2018-07-19T00:47:57.573Z,15.09
2018-07-19T00:50:24.710Z,15.41
2018-07-19T00:52:51.823Z,15.22
2018-07-19T00:55:18.984Z,14.79
2018-07-19T00:57:46.168Z,15.17
2018-07-19T01:00:13.280Z,15.43
2018-07-19T01:02:40.439Z,15.43
2018-07-19T01:05:07.549Z,15.12
2018-07-19T01:07:34.696Z,15.19
2018-07-19T01:10:01.893Z,15.19
2018-07-19T01:12:29.015Z,14.70
2018-07-19T01:14:56.136Z,14.94
2018-07-19T01:17:23.328Z,14.37
2018-07-19T01:19:50.461Z,14.81
2018-07-19T01:22:17.636Z,14.65
2018-07-19T01:24:44.805Z,14.48
2018-07-19T01:27:11.975Z,14.59
2018-07-19T01:29:39.101Z,14.64
2018-07-19T01:32:06.232Z,14.51
2018-07-19T01:34:33.416Z,14.53
2018-07-19T01:37:00.596Z,14.93
2018-07-19T01:39:27.748Z,14.79
2018-07-19T01:42:58.192Z,14.86
2018-07-19T01:45:25.311Z,14.79
2018-07-19T01:47:52.472Z,14.72
2018-07-19T01:50:19.590Z,14.87
2018-07-19T01:52:46.744Z,14.49
2018-07-19T01:55:13.948Z,14.75
2018-07-19T01:57:41.114Z,14.63
2018-07-19T02:00:08.333Z,14.76
2018-07-19T02:02:35.469Z,14.75
2018-07-19T02:05:03.060Z,14.47
2018-07-19T02:07:30.191Z,14.35
2018-07-19T02:09:57.335Z,14.53
2018-07-19T02:12:24.480Z,14.75
2018-07-19T02:14:51.631Z,13.80
2018-07-19T02:17:18.794Z,13.77
2018-07-19T02:19:45.944Z,13.82
2018-07-19T02:22:13.088Z,13.98
2018-07-19T02:24:40.208Z,14.06
2018-07-19T02:27:07.364Z,14.09
2018-07-19T02:29:34.517Z,13.90
2018-07-19T02:32:01.650Z,13.37
2018-07-19T02:34:28.804Z,13.37
2018-07-19T02:36:55.948Z,13.21
2018-07-19T02:39:23.084Z,13.53
2018-07-19T02:41:50.227Z,13.01
2018-07-19T02:44:17.439Z,12.88
2018-07-19T02:46:44.807Z,13.15
2018-07-19T02:49:12.277Z,13.59
2018-07-19T02:51:40.455Z,13.76
2018-07-19T02:54:07.717Z,13.87
2018-07-19T02:56:34.896Z,14.03
2018-07-19T02:59:02.181Z,14.07
2018-07-19T03:01:29.359Z,13.68
2018-07-19T03:03:56.523Z,13.45
2018-07-19T03:06:23.664Z,13.46
2018-07-19T03:08:50.873Z,13.01
2018-07-19T03:11:18.047Z,13.03
2018-07-19T03:13:45.131Z,13.26
2018-07-19T03:16:12.274Z,13.29
2018-07-19T03:18:39.376Z,13.40
2018-07-19T03:21:06.533Z,13.74
2018-07-19T03:23:33.692Z,13.72
2018-07-19T03:26:00.829Z,13.78
2018-07-19T03:28:27.960Z,13.85
2018-07-19T03:30:55.179Z,13.79
2018-07-19T03:33:22.306Z,13.84
2018-07-19T03:35:49.583Z,13.56
2018-07-19T03:38:16.771Z,12.86
2018-07-19T03:40:43.950Z,12.95
2018-07-19T03:43:11.148Z,13.40
2018-07-19T03:48:05.160Z,13.63
2018-07-19T03:50:32.336Z,13.66
2018-07-19T03:52:59.420Z,13.73
2018-07-19T03:55:26.572Z,13.60
2018-07-19T03:57:53.712Z,13.66
2018-07-19T04:00:20.859Z,13.70
2018-07-19T04:02:48.085Z,13.74
2018-07-19T04:05:15.213Z,13.56
2018-07-19T04:07:42.439Z,13.31
2018-07-19T04:10:09.601Z,13.55
2018-07-19T04:12:36.754Z,13.49
2018-07-19T04:15:04.042Z,13.08
2018-07-19T04:17:31.152Z,13.14
2018-07-19T04:19:58.284Z,12.79
2018-07-19T04:22:25.408Z,12.76
2018-07-19T04:24:52.751Z,13.22
2018-07-19T04:27:19.970Z,13.37
2018-07-19T04:29:47.215Z,13.64
2018-07-19T04:32:14.454Z,13.87
2018-07-19T04:34:41.517Z,14.06
2018-07-19T04:37:08.720Z,14.18
2018-07-19T04:39:35.883Z,14.41
2018-07-19T04:42:03.032Z,14.55
2018-07-19T04:44:30.180Z,14.55
2018-07-19T04:46:57.705Z,14.75
2018-07-19T04:49:25.828Z,14.80
2018-07-19T04:51:52.992Z,14.79
2018-07-19T04:54:20.124Z,14.61
2018-07-19T04:56:47.288Z,14.75
2018-07-19T04:59:14.388Z,15.07
2018-07-19T05:01:41.637Z,15.14
2018-07-19T05:04:08.739Z,15.33
2018-07-19T05:06:35.903Z,15.58
2018-07-19T05:09:04.748Z,15.77
2018-07-19T05:11:31.906Z,15.96
2018-07-19T05:13:59.096Z,15.96
2018-07-19T05:16:26.250Z,16.18
2018-07-19T05:18:53.381Z,16.34
2018-07-19T05:21:20.559Z,16.57
2018-07-19T05:23:47.697Z,16.48
2018-07-19T05:26:14.850Z,16.62
2018-07-19T05:28:41.998Z,16.91
2018-07-19T05:31:09.151Z,17.27
2018-07-19T05:33:36.324Z,17.37
2018-07-19T05:36:03.505Z,17.47
2018-07-19T05:38:30.675Z,17.76
2018-07-19T05:40:57.869Z,17.90
2018-07-19T05:43:25.068Z,17.95
2018-07-19T05:45:52.219Z,17.85
2018-07-19T05:48:19.422Z,18.04
2018-07-19T05:50:46.627Z,17.97
2018-07-19T05:53:13.748Z,17.94
2018-07-19T05:55:40.911Z,18.16
2018-07-19T05:58:08.115Z,18.16
2018-07-19T06:00:35.213Z,18.36
2018-07-19T06:03:02.434Z,18.52
2018-07-19T06:05:29.724Z,18.82
2018-07-19T06:07:56.835Z,18.90
2018-07-19T06:10:23.997Z,19.09
2018-07-19T06:12:51.131Z,18.89
2018-07-19T06:15:18.317Z,19.37
2018-07-19T06:17:45.448Z,19.38
2018-07-19T06:20:12.664Z,19.43
2018-07-19T06:22:39.865Z,19.19
2018-07-19T06:25:07.053Z,19.99
2018-07-19T06:27:34.234Z,19.95
2018-07-19T06:30:01.424Z,20.27
2018-07-19T06:32:28.565Z,19.83
2018-07-19T06:34:55.745Z,20.03
2018-07-19T06:37:22.928Z,20.54
2018-07-19T06:39:50.072Z,20.52
2018-07-19T06:42:17.254Z,20.53
2018-07-19T06:44:44.415Z,20.85
2018-07-19T06:47:12.225Z,21.33
2018-07-19T06:49:39.422Z,21.34
2018-07-19T06:52:06.725Z,21.58
2018-07-19T06:54:33.875Z,21.73
2018-07-19T06:57:01.020Z,21.98
2018-07-19T06:59:28.173Z,21.54
2018-07-19T07:01:55.308Z,21.26
2018-07-19T07:04:22.428Z,21.71
2018-07-19T07:06:49.584Z,21.88
2018-07-19T07:09:16.744Z,21.78
2018-07-19T07:11:43.888Z,21.89
2018-07-19T07:14:11.007Z,22.42
2018-07-19T07:16:38.175Z,22.45
2018-07-19T07:19:05.308Z,22.65
2018-07-19T07:21:32.458Z,22.84
2018-07-19T07:23:59.655Z,23.16
2018-07-19T07:26:26.803Z,22.95
2018-07-19T07:28:53.945Z,22.55
2018-07-19T07:31:21.076Z,22.63
2018-07-19T07:33:48.216Z,22.93
2018-07-19T07:36:15.467Z,23.09
2018-07-19T07:38:42.668Z,22.98
2018-07-19T07:41:09.893Z,22.82
2018-07-19T07:43:37.004Z,22.80
2018-07-19T07:46:04.268Z,22.90
2018-07-19T07:48:31.416Z,23.32
2018-07-19T07:50:58.726Z,23.10
2018-07-19T07:53:25.880Z,23.00
2018-07-19T07:55:53.037Z,22.67
2018-07-19T07:58:20.216Z,23.01
2018-07-19T08:00:47.405Z,22.68
2018-07-19T08:03:14.553Z,22.80
2018-07-19T08:05:41.665Z,22.63
2018-07-19T08:08:08.795Z,22.43
2018-07-19T08:10:35.955Z,22.58
2018-07-19T08:13:03.075Z,23.45
2018-07-19T08:15:30.233Z,23.76
2018-07-19T08:17:57.376Z,23.87
2018-07-19T08:20:24.548Z,23.89
2018-07-19T08:22:51.744Z,23.79
2018-07-19T08:25:18.912Z,24.31
2018-07-19T08:27:46.065Z,23.48
2018-07-19T08:30:13.229Z,23.23
2018-07-19T08:32:40.389Z,23.47
2018-07-19T08:35:07.573Z,23.39
2018-07-19T08:37:34.689Z,23.74
2018-07-19T08:40:01.897Z,24.52
2018-07-19T08:42:29.087Z,23.77
2018-07-19T08:44:56.281Z,24.14
2018-07-19T08:47:23.428Z,23.63
2018-07-19T08:49:50.639Z,23.84
2018-07-19T08:52:18.039Z,24.52
2018-07-19T08:54:45.251Z,23.56
2018-07-19T08:57:12.604Z,24.21
2018-07-19T08:59:39.816Z,24.61
2018-07-19T09:02:07.265Z,23.89
2018-07-19T09:04:34.425Z,24.49
2018-07-19T09:07:01.610Z,25.19
2018-07-19T09:09:28.735Z,24.63
2018-07-19T09:11:55.945Z,24.88
2018-07-19T09:14:23.118Z,24.60
2018-07-19T09:16:50.259Z,24.37
2018-07-19T09:19:17.396Z,24.83
2018-07-19T09:21:44.546Z,25.56
2018-07-19T09:24:11.711Z,24.80
2018-07-19T09:26:39.783Z,24.51
2018-07-19T09:29:06.893Z,24.23
2018-07-19T09:31:34.113Z,24.70
2018-07-19T09:34:01.287Z,24.52
2018-07-19T09:36:28.495Z,24.71
2018-07-19T09:38:55.672Z,25.15
2018-07-19T09:41:22.861Z,25.53
2018-07-19T09:43:50.335Z,24.81
2018-07-19T09:46:17.680Z,24.68
2018-07-19T09:48:44.853Z,25.35
2018-07-19T09:51:12.068Z,24.92
2018-07-19T09:53:39.276Z,24.66
2018-07-19T09:56:06.472Z,24.90
2018-07-19T09:58:33.640Z,24.46
2018-07-19T10:01:00.837Z,24.76
2018-07-19T10:03:28.010Z,24.90
2018-07-19T10:05:55.169Z,25.29
2018-07-19T10:08:22.313Z,25.27
2018-07-19T10:10:49.500Z,26.13
2018-07-19T10:13:16.690Z,25.44
2018-07-19T10:15:43.852Z,25.46
2018-07-19T10:18:10.955Z,25.71
2018-07-19T10:20:38.200Z,25.66
2018-07-19T10:23:05.341Z,25.10
2018-07-19T10:25:32.497Z,25.04
2018-07-19T10:27:59.672Z,25.21
2018-07-19T10:30:26.816Z,25.42
2018-07-19T10:32:54.040Z,25.32
2018-07-19T10:35:21.300Z,25.90
2018-07-19T10:37:48.537Z,25.56
2018-07-19T10:40:15.692Z,25.74
2018-07-19T10:42:42.828Z,25.30
2018-07-19T10:45:10.068Z,26.26
2018-07-19T10:47:37.256Z,26.04
2018-07-19T10:50:04.625Z,26.88
2018-07-19T10:52:31.764Z,26.74
2018-07-19T10:54:58.890Z,26.07
2018-07-19T10:57:26.114Z,26.05
2018-07-19T10:59:53.257Z,26.02
2018-07-19T11:02:20.425Z,26.13
2018-07-19T11:04:47.595Z,26.50
2018-07-19T11:07:14.766Z,26.43
2018-07-19T11:09:42.021Z,26.79
2018-07-19T11:12:09.209Z,27.04
2018-07-19T11:14:36.366Z,27.08
2018-07-19T11:17:03.509Z,26.90
2018-07-19T11:19:30.684Z,26.79
2018-07-19T11:21:57.812Z,26.49
2018-07-19T11:24:24.996Z,25.93
2018-07-19T11:26:52.128Z,26.75
2018-07-19T11:29:19.371Z,26.88
2018-07-19T11:31:46.584Z,27.24
2018-07-19T11:34:13.728Z,27.97
2018-07-19T11:36:40.861Z,27.40
2018-07-19T11:39:08.715Z,26.81
2018-07-19T11:41:36.619Z,27.16
2018-07-19T11:44:03.829Z,27.35
2018-07-19T11:46:30.973Z,27.73
2018-07-19T11:48:58.141Z,28.35
2018-07-19T11:51:25.281Z,27.50
2018-07-19T11:53:52.392Z,28.11
2018-07-19T11:56:19.552Z,27.48
2018-07-19T11:58:46.712Z,27.32
2018-07-19T12:01:13.885Z,26.90
2018-07-19T12:03:41.060Z,27.42
2018-07-19T12:06:08.220Z,27.39
2018-07-19T12:08:35.378Z,26.97
2018-07-19T12:11:02.505Z,27.60
2018-07-19T12:13:29.653Z,28.77
2018-07-19T12:15:56.788Z,28.80
2018-07-19T12:18:23.986Z,28.78
2018-07-19T12:20:51.152Z,28.44
2018-07-19T12:23:18.291Z,28.50
2018-07-19T12:25:45.471Z,28.59
2018-07-19T12:28:12.617Z,28.68
2018-07-19T12:30:39.836Z,29.05
2018-07-19T12:33:07.005Z,28.99
2018-07-19T12:35:34.100Z,29.01
2018-07-19T12:38:01.241Z,29.05
2018-07-19T12:40:28.423Z,28.89
2018-07-19T12:42:55.580Z,28.83
2018-07-19T12:45:22.740Z,29.23
2018-07-19T12:47:50.497Z,29.49
2018-07-19T12:50:17.607Z,29.83
2018-07-19T12:52:44.735Z,28.80
2018-07-19T12:55:11.875Z,28.46
2018-07-19T12:57:39.076Z,28.23
2018-07-19T13:00:07.310Z,29.16
2018-07-19T13:02:34.511Z,29.88
2018-07-19T13:05:01.752Z,29.63
2018-07-19T13:07:30.373Z,29.47
2018-07-19T13:10:02.940Z,28.72
2018-07-19T13:12:33.190Z,28.62
2018-07-19T13:15:00.410Z,29.72
2018-07-19T13:17:27.883Z,29.66
2018-07-19T13:19:55.151Z,29.73
2018-07-19T13:22:22.422Z,30.01
2018-07-19T13:24:49.752Z,29.81
2018-07-19T13:27:16.924Z,30.22
2018-07-19T13:29:44.136Z,29.25
2018-07-19T13:32:11.732Z,28.93
2018-07-19T13:34:38.970Z,30.22
2018-07-19T13:37:06.181Z,29.17
2018-07-19T13:39:33.323Z,29.43
2018-07-19T13:42:00.418Z,29.37
2018-07-19T13:44:27.535Z,29.48
2018-07-19T13:46:54.703Z,29.54
2018-07-19T13:49:21.844Z,30.55
2018-07-19T13:51:49.055Z,31.38
2018-07-19T13:54:27.676Z,29.87
2018-07-19T13:56:54.826Z,30.32
2018-07-19T13:59:21.994Z,29.39
2018-07-19T14:01:49.189Z,29.55
2018-07-19T14:04:16.309Z,30.66
2018-07-19T14:06:43.485Z,30.18
2018-07-19T14:09:13.058Z,30.69
2018-07-19T14:11:40.355Z,30.81
2018-07-19T14:14:07.544Z,30.64
2018-07-19T14:16:34.701Z,29.84
2018-07-19T14:19:01.872Z,29.82
2018-07-19T14:21:29.084Z,29.78
2018-07-19T14:23:56.242Z,31.08
2018-07-19T14:26:23.388Z,31.26
2018-07-19T14:28:50.522Z,30.84
2018-07-19T14:31:17.668Z,31.54
2018-07-19T14:33:44.875Z,29.80
2018-07-19T14:36:12.266Z,30.92
2018-07-19T14:38:39.441Z,31.43
2018-07-19T14:41:06.683Z,31.44
2018-07-19T14:43:33.880Z,31.45
2018-07-19T14:46:01.100Z,29.82
2018-07-19T14:48:28.291Z,30.12
2018-07-19T14:50:55.521Z,30.31
2018-07-19T14:53:22.704Z,30.31
2018-07-19T14:55:49.880Z,30.46
2018-07-19T14:58:17.045Z,30.82
2018-07-19T15:00:44.226Z,29.87
2018-07-19T15:03:11.418Z,29.18
2018-07-19T15:05:38.628Z,29.61
2018-07-19T15:08:05.845Z,30.44
2018-07-19T15:10:33.047Z,30.27
2018-07-19T15:13:00.317Z,30.66
2018-07-19T15:15:27.560Z,30.70
2018-07-19T15:17:54.740Z,30.89
2018-07-19T15:20:21.890Z,31.02
2018-07-19T15:22:49.074Z,31.13
2018-07-19T15:25:16.296Z,30.29
2018-07-19T15:27:43.545Z,30.14
2018-07-19T15:30:10.832Z,29.97
2018-07-19T15:32:38.122Z,29.50
2018-07-19T15:35:05.326Z,30.49
2018-07-19T15:37:32.606Z,29.70
2018-07-19T15:39:59.780Z,29.78
2018-07-19T15:42:26.981Z,30.24
2018-07-19T15:44:54.179Z,30.84
2018-07-19T15:47:21.388Z,30.81
2018-07-19T15:49:48.561Z,30.45
2018-07-19T15:52:15.721Z,29.58
2018-07-19T15:54:42.889Z,29.64
2018-07-19T15:57:10.086Z,30.85
2018-07-19T15:59:37.468Z,30.40
2018-07-19T16:02:04.669Z,29.70
2018-07-19T16:04:31.890Z,30.22
2018-07-19T16:06:59.164Z,30.23
2018-07-19T16:09:26.393Z,30.94
2018-07-19T16:11:53.578Z,31.10
2018-07-19T16:14:20.739Z,29.76
2018-07-19T16:16:47.932Z,30.33
2018-07-19T16:19:15.080Z,29.55
2018-07-19T16:21:42.238Z,28.37
2018-07-19T16:24:09.390Z,28.92
2018-07-19T16:26:36.579Z,28.51
2018-07-19T16:29:03.800Z,28.41
2018-07-19T16:31:31.091Z,28.37
2018-07-19T16:33:58.345Z,28.27
2018-07-19T16:36:25.538Z,28.62
2018-07-19T16:38:52.698Z,28.27
2018-07-19T16:41:19.901Z,28.31
2018-07-19T16:43:47.091Z,28.33
2018-07-19T16:46:14.363Z,27.94
2018-07-19T16:48:41.526Z,28.12
2018-07-19T16:51:08.676Z,28.10
2018-07-19T16:53:35.942Z,27.73
2018-07-19T16:56:03.092Z,27.60
2018-07-19T16:58:30.405Z,27.85
2018-07-19T17:00:57.614Z,27.72
2018-07-19T17:03:24.817Z,27.74
2018-07-19T17:05:52.104Z,27.75
2018-07-19T17:08:19.284Z,28.00
2018-07-19T17:10:46.504Z,27.71
2018-07-19T17:13:13.765Z,27.81
2018-07-19T17:15:40.995Z,27.54
2018-07-19T17:18:08.295Z,27.29
2018-07-19T17:20:35.559Z,27.23
2018-07-19T17:23:02.729Z,27.24
2018-07-19T17:25:29.892Z,27.12
2018-07-19T17:27:57.069Z,26.95
2018-07-19T17:30:24.275Z,26.95
2018-07-19T17:32:51.473Z,26.99
2018-07-19T17:35:18.674Z,26.87
2018-07-19T17:37:45.920Z,26.92
2018-07-19T17:40:13.114Z,27.11
2018-07-19T17:42:40.272Z,27.38
2018-07-19T17:45:07.560Z,27.20
2018-07-19T17:47:34.723Z,26.95
2018-07-19T17:50:01.891Z,26.90
2018-07-19T17:52:29.067Z,26.98
2018-07-19T17:54:56.240Z,26.75
2018-07-19T17:57:23.481Z,26.93
2018-07-19T17:59:50.590Z,26.70
2018-07-19T18:02:17.775Z,26.46
2018-07-19T18:04:44.916Z,26.66
2018-07-19T18:07:12.168Z,26.39
2018-07-19T18:09:39.342Z,26.57
2018-07-19T18:12:06.695Z,26.19
2018-07-19T18:14:33.808Z,26.28
2018-07-19T18:17:00.944Z,26.09
2018-07-19T18:19:28.105Z,26.08
2018-07-19T18:21:55.276Z,25.99
2018-07-19T18:24:22.467Z,25.87
2018-07-19T18:26:49.668Z,25.84
2018-07-19T18:29:16.868Z,25.75
2018-07-19T18:31:44.030Z,25.73
2018-07-19T18:34:11.170Z,25.60
2018-07-19T18:36:38.395Z,25.43
2018-07-19T18:39:08.128Z,25.45
2018-07-19T18:41:35.303Z,25.56
2018-07-19T18:44:02.470Z,25.58
2018-07-19T18:46:29.585Z,25.60
2018-07-19T18:48:56.757Z,25.26
2018-07-19T18:51:23.948Z,25.11
2018-07-19T18:53:51.163Z,25.00
2018-07-19T18:56:18.320Z,24.49
2018-07-19T18:58:45.440Z,24.19
2018-07-19T19:01:12.784Z,24.11
2018-07-19T19:03:39.977Z,24.10
2018-07-19T19:06:07.351Z,24.09
2018-07-19T19:08:34.508Z,24.05
2018-07-19T19:11:01.854Z,23.78
2018-07-19T19:13:29.064Z,23.38
2018-07-19T19:15:56.229Z,23.33
2018-07-19T19:18:23.454Z,23.28
2018-07-19T19:20:50.709Z,23.43
2018-07-19T19:23:17.971Z,23.49
2018-07-19T19:25:45.168Z,23.43
2018-07-19T19:28:12.605Z,23.45
2018-07-19T19:30:39.872Z,23.55
2018-07-19T19:33:07.093Z,23.46
2018-07-19T19:35:34.381Z,23.07
2018-07-19T19:38:01.732Z,22.60
2018-07-19T19:40:28.934Z,22.74
2018-07-19T19:42:56.096Z,22.80
2018-07-19T19:45:23.304Z,22.79
2018-07-19T19:47:50.488Z,22.87
2018-07-19T19:50:17.679Z,22.16
2018-07-19T19:52:44.818Z,22.41
2018-07-19T19:55:11.992Z,22.42
2018-07-19T19:57:39.183Z,22.52
2018-07-19T20:00:06.436Z,22.48
2018-07-19T20:02:33.631Z,22.54
2018-07-19T20:05:00.824Z,22.11
2018-07-19T20:07:28.004Z,21.90
2018-07-19T20:09:55.433Z,21.63
2018-07-19T20:12:22.852Z,21.88
2018-07-19T20:14:50.283Z,21.93
2018-07-19T20:17:17.679Z,21.93
2018-07-19T20:19:45.072Z,22.02
2018-07-19T20:22:12.572Z,21.87
2018-07-19T20:24:40.519Z,22.05
2018-07-19T20:27:14.776Z,22.04
2018-07-19T20:29:42.063Z,21.79
2018-07-19T20:32:09.311Z,21.59
2018-07-19T20:34:36.612Z,21.51
2018-07-19T20:37:03.752Z,21.33
2018-07-19T20:39:30.987Z,21.35
2018-07-19T20:41:58.196Z,21.37
2018-07-19T20:44:25.421Z,21.35
2018-07-19T20:46:52.572Z,21.27
2018-07-19T20:49:19.721Z,21.14
2018-07-19T20:51:46.846Z,21.05
2018-07-19T20:54:14.080Z,21.04
2018-07-19T20:56:41.253Z,21.10
2018-07-19T20:59:08.436Z,21.33
2018-07-19T21:01:35.599Z,21.30
2018-07-19T21:04:02.761Z,21.24
2018-07-19T21:06:29.940Z,21.20
2018-07-19T21:08:57.127Z,21.05
2018-07-19T21:11:24.307Z,20.82
2018-07-19T21:13:51.516Z,20.58
2018-07-19T21:16:18.636Z,20.52
2018-07-19T21:18:45.796Z,20.33
2018-07-19T21:21:12.923Z,19.96
2018-07-19T21:23:40.092Z,19.69
2018-07-19T21:26:07.278Z,19.60
2018-07-19T21:28:34.437Z,19.34
2018-07-19T21:31:01.566Z,19.78
2018-07-19T21:33:28.694Z,19.88
2018-07-19T21:35:55.864Z,19.95
2018-07-19T21:38:22.975Z,19.92
2018-07-19T21:40:50.107Z,19.44
2018-07-19T21:43:17.973Z,19.66
2018-07-19T21:45:51.782Z,19.61
2018-07-19T21:48:18.912Z,19.30
2018-07-19T21:50:46.064Z,19.41
2018-07-19T21:53:13.628Z,18.93
2018-07-19T21:55:40.789Z,18.27
2018-07-19T21:58:07.933Z,18.73
2018-07-19T22:00:39.643Z,18.80
2018-07-19T22:03:06.839Z,18.89
2018-07-19T22:05:33.936Z,18.50
2018-07-19T22:08:01.158Z,18.88
2018-07-19T22:10:28.309Z,19.10
2018-07-19T22:12:55.422Z,19.32
2018-07-19T22:15:22.663Z,18.81
2018-07-19T22:17:49.864Z,18.78
2018-07-19T22:20:17.020Z,18.76
2018-07-19T22:22:44.225Z,18.78
2018-07-19T22:25:11.333Z,18.57
2018-07-19T22:27:38.436Z,18.67
2018-07-19T22:30:05.713Z,18.68
2018-07-19T22:32:39.686Z,18.46
2018-07-19T22:35:06.796Z,18.59
2018-07-19T22:37:33.935Z,18.10
2018-07-19T22:40:01.116Z,18.28
2018-07-19T22:42:28.179Z,18.43
2018-07-19T22:44:55.291Z,18.68
2018-07-19T22:47:22.548Z,18.69
2018-07-19T22:49:49.652Z,17.96
2018-07-19T22:52:16.776Z,18.01
2018-07-19T22:54:43.932Z,17.58
2018-07-19T22:57:11.160Z,17.67
2018-07-19T22:59:38.338Z,17.90
2018-07-19T23:02:05.467Z,17.63
2018-07-19T23:04:32.607Z,17.77
2018-07-19T23:06:59.742Z,17.69
2018-07-19T23:09:26.847Z,17.72
2018-07-19T23:11:54.099Z,17.55
2018-07-19T23:14:21.216Z,17.56
2018-07-19T23:16:48.320Z,17.68
2018-07-19T23:19:15.482Z,17.79
2018-07-19T23:21:42.614Z,17.69
2018-07-19T23:24:09.764Z,16.97
2018-07-19T23:26:36.959Z,16.73
2018-07-19T23:29:04.357Z,16.81
2018-07-19T23:31:31.501Z,16.73
2018-07-19T23:33:58.762Z,16.91
2018-07-19T23:36:31.852Z,16.88
2018-07-19T23:39:04.508Z,16.32
2018-07-19T23:41:39.784Z,16.17
2018-07-19T23:44:12.631Z,16.53
2018-07-19T23:46:45.575Z,16.60
2018-07-19T23:49:12.751Z,16.69
2018-07-19T23:51:39.999Z,16.95
2018-07-19T23:54:07.183Z,16.94
2018-07-19T23:56:34.855Z,16.98
2018-07-19T23:59:02.041Z,16.30
